Time;durP1;ratioP1;P1;durP2;ratioP2;P2;SDS_P1;SDS_P2;PMS_P1;PMS_P2;Temp;Humidity;BMP_temperature;BMP_pressure;BME280_temperature;BME280_humidity;BME280_pressure;Samples;Min_cycle;Max_cycle;Signal;HPM_P1;HPM_P2
2021/06/25 00:01:07;;;;;;;8.10;5.07;;;20.60;91.80;;;;;;5092286;28;20391;-77
2021/06/25 00:03:51;;;;;;;7.60;5.25;;;20.60;91.80;;;;;;5087244;28;20035;-77
2021/06/25 00:06:35;;;;;;;5.38;4.72;;;20.60;91.80;;;;;;5092383;28;20047;-78
2021/06/25 00:09:19;;;;;;;7.82;4.60;;;20.50;91.80;;;;;;5090888;28;20089;-78
2021/06/25 00:12:05;;;;;;;6.57;5.43;;;20.50;91.80;;;;;;5085908;28;20541;-77
2021/06/25 00:14:49;;;;;;;7.30;5.60;;;20.50;91.80;;;;;;5036533;28;20044;-78
2021/06/25 00:17:33;;;;;;;7.07;5.00;;;20.50;91.90;;;;;;5057115;28;20047;-77
2021/06/25 00:20:17;;;;;;;7.15;5.32;;;20.40;91.90;;;;;;5071565;28;20074;-77
2021/06/25 00:23:02;;;;;;;7.13;4.40;;;20.40;91.90;;;;;;5070334;28;20093;-77
2021/06/25 00:25:47;;;;;;;5.68;4.53;;;20.50;92.00;;;;;;5069163;28;20089;-77
2021/06/25 00:28:31;;;;;;;5.47;4.25;;;20.50;92.10;;;;;;5084860;28;20067;-76
2021/06/25 00:31:15;;;;;;;5.33;4.83;;;20.40;92.10;;;;;;5096315;28;20070;-78
2021/06/25 00:33:59;;;;;;;5.60;4.57;;;20.50;92.10;;;;;;5080037;28;20133;-78
2021/06/25 00:36:43;;;;;;;6.87;5.20;;;20.50;92.10;;;;;;5075407;28;20048;-80
2021/06/25 00:39:27;;;;;;;6.70;4.77;;;20.50;92.00;;;;;;5060842;28;20619;-79
2021/06/25 00:42:11;;;;;;;6.25;5.07;;;20.60;92.10;;;;;;5076476;28;20062;-79
2021/06/25 00:44:55;;;;;;;6.00;4.83;;;20.60;92.10;;;;;;5095749;28;20042;-80
2021/06/25 00:47:43;;;;;;;5.93;5.20;;;20.60;92.10;;;;;;5092358;28;20039;-79
2021/06/25 00:50:34;;;;;;;6.78;4.90;;;20.60;92.10;;;;;;5095847;28;20098;-79
2021/06/25 00:53:18;;;;;;;6.22;4.82;;;20.60;92.00;;;;;;5093266;28;20039;-80
2021/06/25 00:56:03;;;;;;;6.97;5.13;;;20.60;92.00;;;;;;5095622;28;20090;-79
2021/06/25 00:58:50;;;;;;;8.02;4.78;;;20.60;92.00;;;;;;5062317;28;20431;-79
2021/06/25 01:01:34;;;;;;;6.22;5.50;;;20.60;92.00;;;;;;5077161;28;20093;-77
2021/06/25 01:04:18;;;;;;;7.13;5.25;;;20.60;92.00;;;;;;5059648;28;20075;-79
2021/06/25 01:07:05;;;;;;;7.23;5.90;;;20.60;92.00;;;;;;5073927;28;20165;-80
2021/06/25 01:09:50;;;;;;;7.40;5.68;;;20.60;92.00;;;;;;5074653;28;20292;-80
2021/06/25 01:12:34;;;;;;;8.48;6.22;;;20.50;92.10;;;;;;5074219;28;20031;-79
2021/06/25 01:15:19;;;;;;;7.18;5.50;;;20.50;92.10;;;;;;5074742;28;20059;-79
2021/06/25 01:18:03;;;;;;;7.93;4.93;;;20.40;92.10;;;;;;5083054;28;20035;-80
2021/06/25 01:20:47;;;;;;;9.32;4.97;;;20.40;92.10;;;;;;5094905;28;20085;-80
2021/06/25 01:23:40;;;;;;;6.28;5.43;;;20.40;92.10;;;;;;5092242;28;20043;-79
2021/06/25 01:26:24;;;;;;;7.55;5.10;;;20.50;92.20;;;;;;5094732;28;20047;-79
2021/06/25 01:29:08;;;;;;;7.83;5.33;;;20.50;92.10;;;;;;5091922;28;20114;-80
2021/06/25 01:31:53;;;;;;;5.97;4.85;;;20.50;92.10;;;;;;5092457;28;20492;-79
2021/06/25 01:34:38;;;;;;;7.20;4.93;;;20.50;92.10;;;;;;5053893;28;20036;-78
2021/06/25 01:37:23;;;;;;;7.47;5.05;;;20.60;92.10;;;;;;5056601;28;20040;-79
2021/06/25 01:40:09;;;;;;;6.82;5.32;;;20.60;92.10;;;;;;5058374;28;20067;-79
2021/06/25 01:42:53;;;;;;;9.13;5.68;;;20.50;92.10;;;;;;5053504;28;20044;-79
2021/06/25 01:45:38;;;;;;;8.88;5.80;;;20.50;92.10;;;;;;5053891;28;20096;-80
2021/06/25 01:48:23;;;;;;;7.30;5.35;;;20.50;92.10;;;;;;5057705;28;20035;-78
2021/06/25 01:51:07;;;;;;;6.90;4.88;;;20.50;92.10;;;;;;5073533;28;20047;-77
2021/06/25 01:53:51;;;;;;;5.33;4.70;;;20.50;92.20;;;;;;5079137;28;20430;-77
2021/06/25 01:56:35;;;;;;;8.13;5.13;;;20.50;92.20;;;;;;5093920;28;20277;-77
2021/06/25 01:59:21;;;;;;;8.53;5.30;;;20.50;92.20;;;;;;5079892;28;20039;-77
2021/06/25 02:02:06;;;;;;;7.60;5.47;;;20.40;92.20;;;;;;5082842;28;20097;-77
2021/06/25 02:04:49;;;;;;;9.00;5.70;;;20.50;92.30;;;;;;5089939;28;20507;-77
2021/06/25 02:07:34;;;;;;;7.60;5.57;;;20.50;92.30;;;;;;5093753;28;20265;-76
2021/06/25 02:10:18;;;;;;;6.63;5.32;;;20.50;92.30;;;;;;5073420;28;20460;-77
2021/06/25 02:13:02;;;;;;;6.20;5.13;;;20.50;92.30;;;;;;5072051;28;20098;-77
2021/06/25 02:15:46;;;;;;;6.38;5.38;;;20.50;92.30;;;;;;5093315;28;20066;-77
2021/06/25 02:18:30;;;;;;;9.20;6.18;;;20.40;92.30;;;;;;5075430;28;20043;-76
2021/06/25 02:21:15;;;;;;;8.07;5.33;;;20.40;92.30;;;;;;5093440;28;20387;-77
2021/06/25 02:23:59;;;;;;;7.33;4.83;;;20.40;92.30;;;;;;5076299;28;20343;-76
2021/06/25 02:26:43;;;;;;;6.68;4.85;;;20.50;92.30;;;;;;5091363;28;20427;-76
2021/06/25 02:29:28;;;;;;;7.20;5.18;;;20.50;92.30;;;;;;5090469;28;20047;-76
2021/06/25 02:32:12;;;;;;;5.72;4.80;;;20.50;92.30;;;;;;5093397;28;20115;-76
2021/06/25 02:34:56;;;;;;;8.83;5.00;;;20.50;92.20;;;;;;5089269;28;20058;-77
2021/06/25 02:37:40;;;;;;;7.55;4.75;;;20.50;92.20;;;;;;5087493;28;20082;-77
2021/06/25 02:40:24;;;;;;;6.35;5.18;;;20.50;92.20;;;;;;5054534;28;20451;-78
2021/06/25 02:43:09;;;;;;;6.68;5.72;;;20.50;92.10;;;;;;5056625;28;20039;-77
2021/06/25 02:45:53;;;;;;;11.83;5.73;;;20.50;92.10;;;;;;5094084;28;20047;-78
2021/06/25 02:48:37;;;;;;;7.28;6.30;;;20.50;92.10;;;;;;5085785;28;20293;-78
2021/06/25 02:51:21;;;;;;;9.23;6.77;;;20.50;92.10;;;;;;5072477;28;20043;-78
2021/06/25 02:54:05;;;;;;;8.93;5.63;;;20.50;92.30;;;;;;5063368;28;20461;-78
2021/06/25 02:56:49;;;;;;;9.20;6.25;;;20.40;92.30;;;;;;5099445;28;20058;-80
2021/06/25 02:59:34;;;;;;;8.63;7.05;;;20.40;92.40;;;;;;5078738;28;20491;-79
2021/06/25 03:02:18;;;;;;;7.55;6.75;;;20.40;92.50;;;;;;5072720;28;20051;-77
2021/06/25 03:05:03;;;;;;;8.43;6.88;;;20.40;92.50;;;;;;5087748;28;20097;-78
2021/06/25 03:07:48;;;;;;;7.93;6.28;;;20.50;92.60;;;;;;5075515;28;20124;-78
2021/06/25 03:10:32;;;;;;;8.00;6.80;;;20.50;92.70;;;;;;5052393;28;20125;-78
2021/06/25 03:13:17;;;;;;;12.95;6.72;;;20.50;92.70;;;;;;5057482;28;20035;-78
2021/06/25 03:16:02;;;;;;;10.35;7.32;;;20.50;92.80;;;;;;5092051;28;20043;-79
2021/06/25 03:18:46;;;;;;;8.15;6.85;;;20.50;92.90;;;;;;5089271;28;20442;-79
2021/06/25 03:21:30;;;;;;;10.45;7.22;;;20.50;92.90;;;;;;5090538;28;20087;-75
2021/06/25 03:24:15;;;;;;;10.82;7.00;;;20.50;92.90;;;;;;5090568;28;20059;-78
2021/06/25 03:26:59;;;;;;;11.15;7.15;;;20.60;93.00;;;;;;5092198;28;20042;-78
2021/06/25 03:29:43;;;;;;;10.00;7.22;;;20.60;93.00;;;;;;5074679;28;20085;-76
2021/06/25 03:32:27;;;;;;;10.07;7.53;;;20.60;93.00;;;;;;5056905;28;20072;-78
2021/06/25 03:35:12;;;;;;;9.10;7.18;;;20.60;93.00;;;;;;5089044;28;20110;-78
2021/06/25 03:37:56;;;;;;;10.88;7.18;;;20.70;93.10;;;;;;5081851;28;20468;-78
2021/06/25 03:40:41;;;;;;;9.73;7.10;;;20.60;93.10;;;;;;5041107;28;20047;-78
2021/06/25 03:43:25;;;;;;;9.73;7.93;;;20.70;93.10;;;;;;5059864;28;20486;-78
2021/06/25 03:46:09;;;;;;;11.83;8.77;;;20.70;93.20;;;;;;5090063;28;20570;-78
2021/06/25 03:48:53;;;;;;;12.18;8.15;;;20.70;93.30;;;;;;5088369;28;20463;-78
2021/06/25 03:51:37;;;;;;;11.13;8.65;;;20.70;93.30;;;;;;5091585;28;20085;-78
2021/06/25 03:54:21;;;;;;;9.83;8.80;;;20.70;93.60;;;;;;5077523;28;20040;-78
2021/06/25 03:57:05;;;;;;;11.10;9.07;;;20.70;93.40;;;;;;5056242;28;20090;-79
2021/06/25 03:59:49;;;;;;;11.70;8.75;;;20.60;93.50;;;;;;5085748;28;20285;-79
2021/06/25 04:02:35;;;;;;;11.73;9.27;;;20.60;93.50;;;;;;5091522;28;20502;-78
2021/06/25 04:05:19;;;;;;;11.55;9.32;;;20.60;93.60;;;;;;5069391;28;20047;-77
2021/06/25 04:08:03;;;;;;;13.77;9.57;;;20.60;93.70;;;;;;5074482;28;20177;-78
2021/06/25 04:10:47;;;;;;;12.23;9.63;;;20.60;93.70;;;;;;5084510;28;20039;-78
2021/06/25 04:13:33;;;;;;;12.82;8.35;;;20.60;93.70;;;;;;5088969;28;20038;-78
2021/06/25 04:16:18;;;;;;;10.23;9.02;;;20.60;93.80;;;;;;5095945;28;20054;-78
2021/06/25 04:19:01;;;;;;;10.33;9.23;;;20.60;93.90;;;;;;5084308;28;20043;-78
2021/06/25 04:21:46;;;;;;;13.57;9.23;;;20.70;93.80;;;;;;5075279;28;20108;-78
2021/06/25 04:24:30;;;;;;;12.63;9.27;;;20.70;93.90;;;;;;5086671;28;20292;-78
2021/06/25 04:27:15;;;;;;;12.20;9.93;;;20.70;93.90;;;;;;5092003;28;20506;-77
2021/06/25 04:29:59;;;;;;;13.63;9.32;;;20.70;93.90;;;;;;5074422;28;20487;-77
2021/06/25 04:32:43;;;;;;;13.27;9.40;;;20.80;93.90;;;;;;5075265;28;20043;-78
2021/06/25 04:35:28;;;;;;;12.60;9.97;;;20.80;93.90;;;;;;5074774;28;20082;-78
2021/06/25 04:38:12;;;;;;;15.40;10.07;;;20.80;93.90;;;;;;5061027;28;20086;-78
2021/06/25 04:40:56;;;;;;;14.37;10.27;;;20.80;93.90;;;;;;5093497;28;20043;-78
2021/06/25 04:43:41;;;;;;;10.82;9.43;;;20.90;93.90;;;;;;5091737;28;20304;-78
2021/06/25 04:46:25;;;;;;;14.38;9.35;;;20.80;93.80;;;;;;5090306;28;20408;-78
2021/06/25 04:49:09;;;;;;;11.55;9.23;;;20.90;93.80;;;;;;5084743;28;20198;-78
2021/06/25 04:51:54;;;;;;;14.55;9.70;;;20.90;93.80;;;;;;5095140;28;20576;-78
2021/06/25 04:54:37;;;;;;;12.43;10.13;;;20.90;93.80;;;;;;5091492;28;20537;-77
2021/06/25 04:57:21;;;;;;;11.93;9.80;;;21.00;93.90;;;;;;5074391;28;20396;-80
2021/06/25 05:00:08;;;;;;;13.57;9.40;;;21.00;93.90;;;;;;5073745;28;20159;-79
2021/06/25 05:02:52;;;;;;;15.00;10.90;;;21.00;93.90;;;;;;5054669;28;20090;-80
2021/06/25 05:05:38;;;;;;;15.77;9.40;;;21.00;93.80;;;;;;5071560;28;20047;-80
2021/06/25 05:08:22;;;;;;;13.73;9.57;;;21.00;93.80;;;;;;5091482;28;20561;-80
2021/06/25 05:11:06;;;;;;;13.10;8.93;;;21.10;93.90;;;;;;5094704;28;20118;-79
2021/06/25 05:13:50;;;;;;;10.40;9.30;;;21.10;93.90;;;;;;5084572;28;20285;-77
2021/06/25 05:16:35;;;;;;;13.13;9.87;;;21.10;93.90;;;;;;5060908;28;20048;-78
2021/06/25 05:19:19;;;;;;;10.55;8.98;;;21.20;93.90;;;;;;5089586;28;20047;-77
2021/06/25 05:22:03;;;;;;;12.27;9.18;;;21.20;93.80;;;;;;5096296;28;20039;-76
2021/06/25 05:24:48;;;;;;;9.50;7.20;;;21.30;93.70;;;;;;5091859;28;20075;-75
2021/06/25 05:27:32;;;;;;;10.43;7.83;;;21.30;93.20;;;;;;5094578;28;20392;-78
2021/06/25 05:30:16;;;;;;;8.10;6.37;;;21.30;93.00;;;;;;5092697;28;20066;-78
2021/06/25 05:33:02;;;;;;;10.30;6.97;;;21.30;92.90;;;;;;5078587;28;20066;-77
2021/06/25 05:35:48;;;;;;;8.85;6.40;;;21.30;92.60;;;;;;5093990;28;20225;-78
2021/06/25 05:38:32;;;;;;;10.63;6.88;;;21.40;92.50;;;;;;5083500;28;20487;-72
2021/06/25 05:41:16;;;;;;;9.10;7.03;;;21.50;92.40;;;;;;5070143;28;20063;-74
2021/06/25 05:44:00;;;;;;;11.23;7.47;;;21.50;92.30;;;;;;5062674;28;20286;-76
2021/06/25 05:46:44;;;;;;;10.73;7.63;;;21.50;91.90;;;;;;5073653;28;20082;-71
2021/06/25 05:49:28;;;;;;;12.05;7.57;;;21.60;92.10;;;;;;5083829;28;20289;-75
2021/06/25 05:52:12;;;;;;;12.90;7.15;;;21.60;91.90;;;;;;5094115;28;20403;-78
2021/06/25 05:54:56;;;;;;;12.50;7.37;;;21.60;91.90;;;;;;5088352;28;20043;-79
2021/06/25 05:57:42;;;;;;;12.80;8.90;;;21.70;91.70;;;;;;5072873;28;20147;-80
2021/06/25 06:00:27;;;;;;;13.52;8.35;;;21.60;91.20;;;;;;5093980;28;20031;-74
2021/06/25 06:03:11;;;;;;;12.07;8.40;;;21.60;91.40;;;;;;5077006;28;20090;-80
2021/06/25 06:05:54;;;;;;;14.65;8.25;;;21.70;91.70;;;;;;5093320;28;20066;-79
2021/06/25 06:08:39;;;;;;;11.52;8.43;;;21.80;91.70;;;;;;5090523;28;20097;-81
2021/06/25 06:11:22;;;;;;;14.37;7.87;;;21.90;91.50;;;;;;5093558;28;20403;-80
2021/06/25 06:14:07;;;;;;;14.77;8.82;;;22.00;91.60;;;;;;5081461;28;20121;-80
2021/06/25 06:16:52;;;;;;;11.73;7.95;;;22.20;91.60;;;;;;5066688;28;20059;-81
2021/06/25 06:19:40;;;;;;;12.98;7.88;;;22.30;91.20;;;;;;5077044;28;20078;-80
2021/06/25 06:31:34;;;;;;;11.75;7.90;;;22.50;90.00;;;;;;5062238;28;20509;-72
2021/06/25 06:34:20;;;;;;;9.88;7.57;;;22.50;89.70;;;;;;5075073;28;20054;-76
2021/06/25 06:37:05;;;;;;;10.48;7.38;;;22.50;89.30;;;;;;5086549;28;20039;-78
2021/06/25 06:39:49;;;;;;;12.05;7.63;;;22.50;88.70;;;;;;5082566;28;20027;-77
2021/06/25 06:42:33;;;;;;;10.40;6.65;;;22.50;87.90;;;;;;5079544;28;20043;-77
2021/06/25 06:45:18;;;;;;;12.43;6.53;;;22.50;88.50;;;;;;5079499;28;20499;-76
2021/06/25 06:48:03;;;;;;;11.77;6.15;;;22.50;88.80;;;;;;5072247;28;20044;-77
2021/06/25 06:50:47;;;;;;;;;;;22.60;88.40;;;;;;5074439;28;20034;-78
2021/06/25 06:53:32;;;;;;;8.60;5.80;;;22.60;88.70;;;;;;5071481;28;20371;-78
2021/06/25 06:56:21;;;;;;;10.38;6.38;;;22.60;87.70;;;;;;5079283;28;20573;-78
2021/06/25 06:59:05;;;;;;;9.63;6.40;;;22.70;87.50;;;;;;5087228;28;20043;-78
2021/06/25 07:01:49;;;;;;;;;;;22.80;87.10;;;;;;5090738;28;20031;-77
2021/06/25 07:04:34;;;;;;;6.80;5.40;;;22.90;88.00;;;;;;5085863;28;19923;-78
2021/06/25 07:07:18;;;;;;;9.45;5.25;;;22.90;86.40;;;;;;5088530;28;20090;-77
2021/06/25 07:10:05;;;;;;;10.00;6.70;;;23.00;86.60;;;;;;5077195;28;20050;-74
2021/06/25 07:12:49;;;;;;;8.48;5.90;;;23.00;84.90;;;;;;5070758;28;20035;-80
2021/06/25 07:15:33;;;;;;;10.57;6.22;;;23.10;85.70;;;;;;5092764;28;20058;-77
2021/06/25 07:18:17;;;;;;;10.60;6.35;;;23.10;85.50;;;;;;5085316;28;20051;-76
2021/06/25 07:21:01;;;;;;;8.63;5.40;;;23.20;85.30;;;;;;5099076;28;20051;-77
2021/06/25 07:23:46;;;;;;;9.35;5.07;;;23.10;85.20;;;;;;5085876;28;20043;-82
2021/06/25 07:26:31;;;;;;;7.65;5.15;;;23.20;85.30;;;;;;5076576;28;20040;-82
2021/06/25 07:29:15;;;;;;;9.20;5.63;;;23.20;85.00;;;;;;5078167;28;20062;-77
2021/06/25 07:32:00;;;;;;;9.15;5.60;;;23.20;84.20;;;;;;5069953;28;20043;-82
2021/06/25 07:34:44;;;;;;;11.88;5.47;;;23.10;83.70;;;;;;5072052;28;20070;-84
2021/06/25 07:37:28;;;;;;;9.25;5.80;;;23.10;84.30;;;;;;5059233;28;20067;-82
2021/06/25 07:40:13;;;;;;;13.05;5.45;;;23.10;84.50;;;;;;5077183;28;20041;-75
2021/06/25 07:42:45;;;;;;;6.40;5.25;;;23.20;84.10;;;;;;5076539;28;20488;-82
2021/06/25 07:45:29;;;;;;;12.27;5.65;;;23.30;83.30;;;;;;5091817;28;20044;-83
2021/06/25 07:48:15;;;;;;;8.57;5.43;;;23.40;84.00;;;;;;5056494;28;20518;-84
2021/06/25 07:51:01;;;;;;;6.72;4.80;;;23.50;83.80;;;;;;5079078;28;20070;-83
2021/06/25 07:53:47;;;;;;;9.15;5.35;;;23.60;84.00;;;;;;5067531;28;20016;-79
2021/06/25 07:56:33;;;;;;;8.93;5.65;;;23.60;83.20;;;;;;5070644;28;20513;-88
2021/06/25 07:59:18;;;;;;;8.85;5.35;;;23.60;80.60;;;;;;5068795;28;20024;-86
2021/06/25 08:02:04;;;;;;;8.52;6.30;;;23.60;81.50;;;;;;5069320;28;20051;-87
2021/06/25 08:04:50;;;;;;;11.50;6.30;;;23.70;80.40;;;;;;5077722;28;20054;-82
2021/06/25 08:07:36;;;;;;;9.80;5.20;;;23.70;80.00;;;;;;5067213;28;20020;-86
2021/06/25 08:10:22;;;;;;;8.32;5.55;;;23.60;80.10;;;;;;5075420;28;20033;-84
2021/06/25 08:13:08;;;;;;;9.30;5.40;;;23.60;79.90;;;;;;5065902;28;20238;-81
2021/06/25 08:15:54;;;;;;;8.23;5.43;;;23.60;80.90;;;;;;5071590;28;20094;-85
2021/06/25 08:18:40;;;;;;;8.68;5.40;;;23.60;80.90;;;;;;5064483;28;20144;-79
2021/06/25 08:21:27;;;;;;;6.07;5.15;;;23.60;81.30;;;;;;5061987;28;20032;-80
2021/06/25 08:24:13;;;;;;;8.45;5.43;;;23.60;81.00;;;;;;5059075;28;20067;-80
2021/06/25 08:26:59;;;;;;;8.73;5.57;;;23.70;80.10;;;;;;5061554;28;20043;-79
2021/06/25 08:29:45;;;;;;;8.40;6.13;;;23.70;79.20;;;;;;5079847;28;20036;-78
2021/06/25 08:32:31;;;;;;;6.72;5.68;;;23.70;76.90;;;;;;5069994;28;20025;-78
2021/06/25 08:35:17;;;;;;;9.57;5.68;;;23.70;78.30;;;;;;5069049;28;20048;-74
2021/06/25 08:38:03;;;;;;;7.03;4.50;;;23.80;78.70;;;;;;5061520;28;20020;-73
2021/06/25 08:40:49;;;;;;;7.68;6.40;;;23.90;79.00;;;;;;5073336;28;20033;-76
2021/06/25 08:43:34;;;;;;;7.97;5.65;;;24.00;79.10;;;;;;5054944;28;20017;-76
2021/06/25 08:46:20;;;;;;;9.68;5.90;;;24.10;78.80;;;;;;5071808;28;20024;-77
2021/06/25 08:49:07;;;;;;;9.50;5.50;;;24.20;79.20;;;;;;5070888;28;20447;-77
2021/06/25 08:51:52;;;;;;;7.80;5.72;;;24.30;78.70;;;;;;5068599;28;20029;-77
2021/06/25 08:54:38;;;;;;;8.05;5.18;;;24.40;77.90;;;;;;5070475;28;20032;-77
2021/06/25 08:57:24;;;;;;;8.45;6.13;;;24.50;77.90;;;;;;5076377;28;20109;-77
2021/06/25 09:00:13;;;;;;;7.55;5.22;;;24.60;75.10;;;;;;5069437;28;20099;-77
2021/06/25 09:02:59;;;;;;;14.07;6.25;;;24.70;75.80;;;;;;5070804;28;20067;-76
2021/06/25 09:05:45;;;;;;;7.70;6.38;;;24.80;74.60;;;;;;5075694;28;20041;-77
2021/06/25 09:08:30;;;;;;;8.60;5.28;;;24.80;72.40;;;;;;5080575;28;20037;-76
2021/06/25 09:11:25;;;;;;;6.82;4.90;;;24.90;74.00;;;;;;5062944;28;20035;-76
2021/06/25 09:14:11;;;;;;;5.85;4.95;;;25.10;73.30;;;;;;5065366;28;20024;-76
2021/06/25 09:17:01;;;;;;;7.68;4.55;;;25.20;74.00;;;;;;5057469;28;20473;-75
2021/06/25 09:19:47;;;;;;;8.68;6.05;;;25.40;73.90;;;;;;5075229;28;20027;-76
2021/06/25 09:22:48;;;;;;;9.55;5.13;;;25.50;71.30;;;;;;5075237;28;20020;-76
2021/06/25 09:25:58;;;;;;;9.48;5.10;;;25.60;70.40;;;;;;5066609;28;20534;-73
2021/06/25 09:28:46;;;;;;;8.98;5.10;;;25.70;70.10;;;;;;5073526;28;20488;-71
2021/06/25 09:31:33;;;;;;;7.22;4.78;;;25.80;69.30;;;;;;5076718;28;20036;-72
2021/06/25 09:34:42;;;;;;;10.50;6.03;;;25.90;69.60;;;;;;5082070;28;20043;-72
2021/06/25 09:37:28;;;;;;;8.13;5.22;;;26.00;67.20;;;;;;5072358;28;20059;-72
2021/06/25 09:40:16;;;;;;;7.55;5.10;;;26.00;67.80;;;;;;5077297;28;20588;-71
2021/06/25 09:43:11;;;;;;;8.00;5.60;;;26.00;67.70;;;;;;5078195;28;20144;-73
2021/06/25 09:45:49;;;;;;;9.75;5.00;;;26.10;65.50;;;;;;5065624;28;20024;-72
2021/06/25 09:48:16;;;;;;;6.85;5.05;;;26.10;66.40;;;;;;5072636;28;20032;-73
2021/06/25 09:50:43;;;;;;;5.68;4.50;;;26.10;67.00;;;;;;5072389;28;20044;-73
2021/06/25 09:53:09;;;;;;;7.72;5.32;;;26.10;66.50;;;;;;5072636;28;20038;-73
2021/06/25 09:55:54;;;;;;;6.32;4.75;;;26.20;65.90;;;;;;5073055;28;20036;-73
2021/06/25 10:03:48;;;;;;;7.53;5.35;;;26.10;64.60;;;;;;5073452;28;20039;-73
2021/06/25 10:06:34;;;;;;;7.00;5.03;;;26.10;63.70;;;;;;5076004;28;20071;-73
2021/06/25 10:09:18;;;;;;;8.88;5.53;;;26.00;64.30;;;;;;5068045;28;20051;-73
2021/06/25 10:11:45;;;;;;;7.15;5.70;;;26.00;64.10;;;;;;5064120;28;20017;-73
2021/06/25 10:14:11;;;;;;;14.80;6.70;;;26.00;63.50;;;;;;5053897;28;20068;-73
2021/06/25 10:16:55;;;;;;;10.30;5.53;;;25.90;62.30;;;;;;5066462;28;20051;-70
2021/06/25 10:19:50;;;;;;;7.95;6.05;;;25.80;63.30;;;;;;5072343;28;20356;-73
2021/06/25 10:22:36;;;;;;;7.43;5.03;;;25.80;63.90;;;;;;5057506;28;20146;-73
2021/06/25 10:25:23;;;;;;;8.43;5.50;;;25.80;64.70;;;;;;5069394;28;20330;-73
2021/06/25 10:28:08;;;;;;;7.80;5.13;;;25.90;65.00;;;;;;5060972;28;20133;-74
2021/06/25 10:30:52;;;;;;;6.57;5.70;;;26.00;64.70;;;;;;5076217;28;20098;-73
2021/06/25 10:33:37;;;;;;;7.65;4.25;;;26.10;64.10;;;;;;5073172;28;20593;-73
2021/06/25 10:36:27;;;;;;;7.95;5.03;;;26.10;63.80;;;;;;5073484;28;20055;-74
2021/06/25 10:39:14;;;;;;;7.22;5.68;;;26.20;63.60;;;;;;5070010;28;20039;-73
2021/06/25 10:42:00;;;;;;;8.40;5.90;;;26.20;62.50;;;;;;5087681;28;20035;-72
2021/06/25 10:44:52;;;;;;;8.18;5.20;;;26.30;62.60;;;;;;5074344;28;20487;-72
2021/06/25 10:47:50;;;;;;;7.85;5.32;;;26.30;63.70;;;;;;5082953;28;20081;-75
2021/06/25 10:50:34;;;;;;;10.40;5.18;;;26.30;62.60;;;;;;5066540;28;20039;-76
2021/06/25 10:53:19;;;;;;;;;;;26.30;61.90;;;;;;5082765;28;20028;-74
2021/06/25 10:56:04;;;;;;;7.25;5.55;;;26.20;62.70;;;;;;5052489;28;19940;-75
2021/06/25 10:58:48;;;;;;;7.35;5.30;;;26.20;63.10;;;;;;5064138;28;20090;-74
2021/06/25 11:01:50;;;;;;;5.50;4.72;;;26.10;62.50;;;;;;5070756;28;20093;-74
2021/06/25 11:04:37;;;;;;;6.93;5.57;;;26.10;62.60;;;;;;5076792;28;20047;-73
2021/06/25 11:07:42;;;;;;;5.68;4.80;;;26.10;62.40;;;;;;5073923;28;20038;-72
2021/06/25 11:10:30;;;;;;;;;;;26.20;63.10;;;;;;5073869;28;20051;-72
2021/06/25 11:13:16;;;;;;;6.55;5.30;;;26.30;63.50;;;;;;5068133;28;19911;-73
2021/06/25 11:16:19;;;;;;;6.32;4.55;;;26.30;61.80;;;;;;5067245;28;20123;-72
2021/06/25 11:19:03;;;;;;;5.40;4.82;;;26.30;61.70;;;;;;5066018;28;20031;-72
2021/06/25 11:21:47;;;;;;;9.80;5.63;;;26.30;60.70;;;;;;5077461;28;20074;-72
2021/06/25 11:24:48;;;;;;;6.18;5.40;;;26.30;59.90;;;;;;5068382;28;20123;-71
2021/06/25 11:28:11;;;;;;;6.07;5.05;;;26.20;60.60;;;;;;5075462;28;20039;-71
2021/06/25 11:30:59;;;;;;;6.57;3.97;;;26.30;60.80;;;;;;5072863;28;20089;-70
2021/06/25 11:33:58;;;;;;;6.03;4.07;;;26.20;59.90;;;;;;5070445;28;20035;-68
2021/06/25 11:36:52;;;;;;;4.85;3.75;;;26.20;59.80;;;;;;5076546;28;20181;-70
2021/06/25 11:39:37;;;;;;;7.32;4.43;;;26.20;59.70;;;;;;5075706;28;20530;-72
2021/06/25 11:42:23;;;;;;;4.28;3.75;;;26.20;58.30;;;;;;5082028;28;20436;-72
2021/06/25 11:45:08;;;;;;;5.70;4.07;;;26.20;59.50;;;;;;5070675;28;20111;-70
2021/06/25 11:47:54;;;;;;;7.28;4.47;;;26.30;60.20;;;;;;5066370;28;20039;-73
2021/06/25 11:50:38;;;;;;;4.80;4.00;;;26.40;60.00;;;;;;5070066;28;20059;-72
2021/06/25 11:53:22;;;;;;;;;;;26.60;60.30;;;;;;5069905;28;20055;-69
2021/06/25 11:56:06;;;;;;;7.38;4.57;;;26.70;59.90;;;;;;5049124;28;19926;-69
2021/06/25 11:59:06;;;;;;;6.20;4.20;;;26.80;58.70;;;;;;5079237;28;20381;-69
2021/06/25 12:01:59;;;;;;;6.43;4.25;;;26.90;59.60;;;;;;5079350;28;20078;-69
2021/06/25 12:04:43;;;;;;;5.15;4.10;;;27.00;60.10;;;;;;5066019;28;20043;-70
2021/06/25 12:07:27;;;;;;;4.95;4.05;;;27.10;58.30;;;;;;5076222;28;20458;-69
2021/06/25 12:10:17;;;;;;;6.00;4.40;;;27.10;56.70;;;;;;5066532;28;20129;-70
2021/06/25 12:13:01;;;;;;;6.53;4.07;;;27.20;55.20;;;;;;5080568;28;20031;-69
2021/06/25 12:15:47;;;;;;;5.40;3.90;;;27.20;56.50;;;;;;5068662;28;20127;-69
2021/06/25 12:18:32;;;;;;;4.60;3.53;;;27.30;56.00;;;;;;5072169;28;20058;-69
2021/06/25 12:21:18;;;;;;;5.93;3.72;;;27.40;56.30;;;;;;5051430;28;20131;-69
2021/06/25 12:24:03;;;;;;;5.03;3.42;;;27.40;55.40;;;;;;5062607;28;20044;-69
2021/06/25 12:26:47;;;;;;;;;;;27.50;54.10;;;;;;5069821;28;20043;-70
2021/06/25 12:29:32;;;;;;;4.57;3.50;;;27.50;51.50;;;;;;5072332;28;19915;-67
2021/06/25 12:32:20;;;;;;;9.00;4.57;;;27.40;52.90;;;;;;5075087;28;20098;-69
2021/06/25 12:35:05;;;;;;;5.80;3.95;;;27.40;52.10;;;;;;5070697;28;20043;-68
2021/06/25 12:37:52;;;;;;;6.47;3.40;;;27.40;51.70;;;;;;5075998;28;20039;-69
2021/06/25 12:40:57;;;;;;;6.30;3.88;;;27.30;52.50;;;;;;5073962;28;20070;-69
2021/06/25 12:43:46;;;;;;;6.95;4.35;;;27.40;53.40;;;;;;5073387;28;20120;-68
2021/06/25 12:46:30;;;;;;;6.07;3.85;;;27.30;51.80;;;;;;5080871;28;20341;-68
2021/06/25 12:49:18;;;;;;;4.68;3.47;;;27.20;52.00;;;;;;5077283;28;20043;-68
2021/06/25 12:52:20;;;;;;;5.43;4.20;;;27.20;52.10;;;;;;5083011;28;20047;-68
2021/06/25 12:55:06;;;;;;;5.70;3.85;;;27.30;50.50;;;;;;5071999;28;20078;-68
2021/06/25 12:57:50;;;;;;;5.45;3.70;;;27.20;51.80;;;;;;5073438;28;20050;-68
2021/06/25 13:00:34;;;;;;;5.63;3.88;;;27.20;52.50;;;;;;5081531;28;20044;-68
2021/06/25 13:03:19;;;;;;;5.57;3.65;;;27.30;51.00;;;;;;5071095;28;20032;-69
2021/06/25 13:06:33;;;;;;;5.88;4.13;;;27.30;52.20;;;;;;5071982;28;20146;-69
2021/06/25 13:09:29;;;;;;;5.82;3.75;;;27.50;52.80;;;;;;5064902;28;20039;-68
2021/06/25 13:12:14;;;;;;;4.78;3.63;;;27.50;52.20;;;;;;5088660;28;20036;-69
2021/06/25 13:14:59;;;;;;;5.68;3.85;;;27.50;52.10;;;;;;5080367;28;20063;-69
2021/06/25 13:17:44;;;;;;;6.00;3.45;;;27.40;50.80;;;;;;5078495;28;20141;-69
2021/06/25 13:20:29;;;;;;;4.57;3.45;;;27.30;51.60;;;;;;5066577;28;20043;-69
2021/06/25 13:23:19;;;;;;;5.13;2.90;;;27.30;51.40;;;;;;5085284;28;20106;-69
2021/06/25 13:26:14;;;;;;;4.90;3.25;;;27.30;51.10;;;;;;5049179;28;20099;-70
2021/06/25 13:29:00;;;;;;;7.32;3.40;;;27.40;51.40;;;;;;5069300;28;20131;-69
2021/06/25 13:31:52;;;;;;;7.13;3.58;;;27.30;51.30;;;;;;5083069;28;20054;-69
2021/06/25 13:34:36;;;;;;;4.57;3.50;;;27.30;51.50;;;;;;5073009;28;20630;-68
2021/06/25 13:37:34;;;;;;;6.80;3.97;;;27.50;52.40;;;;;;5068209;28;20053;-68
2021/06/25 13:40:23;;;;;;;5.85;3.65;;;27.50;51.70;;;;;;5080851;28;20039;-68
2021/06/25 13:43:32;;;;;;;7.25;3.67;;;27.50;52.10;;;;;;5055621;28;20527;-68
2021/06/25 13:46:21;;;;;;;5.63;4.22;;;27.60;51.70;;;;;;5085495;28;20043;-69
2021/06/25 13:49:07;;;;;;;5.63;3.70;;;27.80;51.80;;;;;;5066976;28;20121;-69
2021/06/25 13:51:52;;;;;;;5.97;4.10;;;27.70;52.20;;;;;;5087407;28;20495;-68
2021/06/25 13:54:35;;;;;;;7.65;4.43;;;27.70;51.50;;;;;;5067572;28;20047;-68
2021/06/25 13:57:20;;;;;;;5.78;3.60;;;27.60;50.60;;;;;;5085952;28;20081;-69
2021/06/25 14:00:25;;;;;;;9.60;3.78;;;27.50;50.40;;;;;;5078018;28;20186;-69
2021/06/25 14:03:21;;;;;;;8.18;4.10;;;27.40;51.00;;;;;;5073654;28;20064;-68
2021/06/25 14:06:06;;;;;;;4.93;3.30;;;27.30;51.60;;;;;;5060108;28;20051;-68
2021/06/25 14:08:51;;;;;;;9.85;4.28;;;27.40;52.30;;;;;;5084092;28;20453;-69
2021/06/25 14:11:38;;;;;;;6.85;3.67;;;27.40;52.10;;;;;;5076881;28;20027;-69
2021/06/25 14:14:22;;;;;;;5.63;3.42;;;27.40;50.80;;;;;;5069790;28;20056;-69
2021/06/25 14:17:06;;;;;;;4.47;3.30;;;27.40;51.40;;;;;;5072715;28;20085;-68
2021/06/25 14:19:50;;;;;;;13.52;4.13;;;27.70;50.80;;;;;;5072878;28;20074;-69
2021/06/25 14:22:37;;;;;;;5.07;3.67;;;27.70;50.20;;;;;;5051007;28;20029;-68
2021/06/25 14:25:22;;;;;;;4.78;3.60;;;27.90;50.60;;;;;;5055602;28;20035;-68
2021/06/25 14:28:08;;;;;;;6.95;4.45;;;28.20;50.20;;;;;;5065600;28;22246;-68
2021/06/25 14:30:55;;;;;;;5.60;4.03;;;28.30;49.90;;;;;;5051171;28;20067;-70
2021/06/25 14:33:41;;;;;;;4.68;3.78;;;28.30;49.40;;;;;;5066472;28;20471;-68
2021/06/25 14:36:26;;;;;;;8.95;4.28;;;28.30;49.10;;;;;;5081029;28;20038;-69